sensor_id;sensor_type;location;lat;lon;timestamp;pressure;altitude;pressure_sealevel;temperature;humidity
77019;BME280;66044;53.142;17.962;2023-06-10T00:01:03;101098.23;;;18.34;57.04
77019;BME280;66044;53.142;17.962;2023-06-10T00:03:52;101105.52;;;18.34;57.14
77019;BME280;66044;53.142;17.962;2023-06-10T00:06:19;101105.66;;;18.33;57.03
77019;BME280;66044;53.142;17.962;2023-06-10T00:08:47;101105.10;;;18.31;57.08
77019;BME280;66044;53.142;17.962;2023-06-10T00:11:14;101107.77;;;18.29;57.09
77019;BME280;66044;53.142;17.962;2023-06-10T00:13:40;101107.22;;;18.27;57.20
77019;BME280;66044;53.142;17.962;2023-06-10T00:16:07;101106.59;;;18.26;57.12
77019;BME280;66044;53.142;17.962;2023-06-10T00:18:33;101109.81;;;18.24;57.04
77019;BME280;66044;53.142;17.962;2023-06-10T00:21:03;101109.39;;;18.22;56.95
77019;BME280;66044;53.142;17.962;2023-06-10T00:23:31;101110.38;;;18.20;57.15
77019;BME280;66044;53.142;17.962;2023-06-10T00:25:58;101110.85;;;18.21;57.06
77019;BME280;66044;53.142;17.962;2023-06-10T00:28:26;101110.52;;;18.20;56.88
77019;BME280;66044;53.142;17.962;2023-06-10T00:30:52;101113.10;;;18.20;56.90
77019;BME280;66044;53.142;17.962;2023-06-10T00:33:19;101112.92;;;18.19;56.92
77019;BME280;66044;53.142;17.962;2023-06-10T00:35:45;101114.41;;;18.19;56.82
77019;BME280;66044;53.142;17.962;2023-06-10T00:38:13;101115.88;;;18.19;56.84
77019;BME280;66044;53.142;17.962;2023-06-10T00:40:41;101120.39;;;18.19;56.74
77019;BME280;66044;53.142;17.962;2023-06-10T00:43:08;101120.48;;;18.20;56.73
77019;BME280;66044;53.142;17.962;2023-06-10T00:45:34;101119.30;;;18.20;56.73
77019;BME280;66044;53.142;17.962;2023-06-10T00:48:01;101122.36;;;18.21;56.54
77019;BME280;66044;53.142;17.962;2023-06-10T00:50:28;101125.32;;;18.22;56.63
77019;BME280;66044;53.142;17.962;2023-06-10T00:52:55;101129.06;;;18.22;56.74
77019;BME280;66044;53.142;17.962;2023-06-10T00:55:22;101132.63;;;18.22;56.57
77019;BME280;66044;53.142;17.962;2023-06-10T00:57:50;101135.75;;;18.23;56.63
77019;BME280;66044;53.142;17.962;2023-06-10T01:00:17;101139.64;;;18.23;56.60
77019;BME280;66044;53.142;17.962;2023-06-10T01:02:45;101137.69;;;18.23;56.52
77019;BME280;66044;53.142;17.962;2023-06-10T01:05:11;101140.09;;;18.23;56.44
77019;BME280;66044;53.142;17.962;2023-06-10T01:13:13;101141.42;;;18.23;56.35
77019;BME280;66044;53.142;17.962;2023-06-10T01:15:40;101146.34;;;18.24;56.28
77019;BME280;66044;53.142;17.962;2023-06-10T01:18:08;101144.35;;;18.26;56.09
77019;BME280;66044;53.142;17.962;2023-06-10T01:20:37;101144.67;;;18.27;56.02
77019;BME280;66044;53.142;17.962;2023-06-10T01:23:07;101145.48;;;18.29;55.93
77019;BME280;66044;53.142;17.962;2023-06-10T01:25:38;101144.88;;;18.31;55.93
77019;BME280;66044;53.142;17.962;2023-06-10T01:28:27;101144.28;;;18.32;55.77
77019;BME280;66044;53.142;17.962;2023-06-10T01:33:52;101151.70;;;18.33;55.49
77019;BME280;66044;53.142;17.962;2023-06-10T01:36:22;101153.63;;;18.33;55.52
77019;BME280;66044;53.142;17.962;2023-06-10T01:38:50;101152.61;;;18.33;55.50
77019;BME280;66044;53.142;17.962;2023-06-10T01:41:18;101152.67;;;18.32;55.47
77019;BME280;66044;53.142;17.962;2023-06-10T01:43:45;101156.61;;;18.30;55.54
77019;BME280;66044;53.142;17.962;2023-06-10T01:46:12;101161.63;;;18.29;55.47
77019;BME280;66044;53.142;17.962;2023-06-10T01:48:41;101165.19;;;18.28;55.43
77019;BME280;66044;53.142;17.962;2023-06-10T01:51:08;101168.06;;;18.26;55.43
77019;BME280;66044;53.142;17.962;2023-06-10T01:53:34;101170.20;;;18.24;55.48
77019;BME280;66044;53.142;17.962;2023-06-10T01:56:01;101173.05;;;18.23;55.44
77019;BME280;66044;53.142;17.962;2023-06-10T01:58:28;101172.70;;;18.21;55.51
77019;BME280;66044;53.142;17.962;2023-06-10T02:00:54;101175.33;;;18.20;55.46
77019;BME280;66044;53.142;17.962;2023-06-10T02:03:20;101175.48;;;18.18;55.52
77019;BME280;66044;53.142;17.962;2023-06-10T02:05:47;101179.48;;;18.16;55.44
77019;BME280;66044;53.142;17.962;2023-06-10T02:08:13;101181.39;;;18.15;55.49
77019;BME280;66044;53.142;17.962;2023-06-10T02:10:40;101185.65;;;18.14;55.62
77019;BME280;66044;53.142;17.962;2023-06-10T02:13:07;101189.11;;;18.12;55.82
77019;BME280;66044;53.142;17.962;2023-06-10T02:15:34;101194.08;;;18.11;55.76
77019;BME280;66044;53.142;17.962;2023-06-10T02:18:01;101187.54;;;18.10;55.62
77019;BME280;66044;53.142;17.962;2023-06-10T02:20:28;101190.88;;;18.10;55.59
77019;BME280;66044;53.142;17.962;2023-06-10T02:22:55;101187.36;;;18.09;55.54
77019;BME280;66044;53.142;17.962;2023-06-10T02:25:21;101186.81;;;18.08;55.52
77019;BME280;66044;53.142;17.962;2023-06-10T02:27:48;101185.64;;;18.08;55.49
77019;BME280;66044;53.142;17.962;2023-06-10T02:30:14;101186.25;;;18.08;55.42
77019;BME280;66044;53.142;17.962;2023-06-10T02:32:41;101183.23;;;18.08;55.41
77019;BME280;66044;53.142;17.962;2023-06-10T02:35:08;101183.77;;;18.08;55.22
77019;BME280;66044;53.142;17.962;2023-06-10T02:37:38;101185.95;;;18.08;55.34
77019;BME280;66044;53.142;17.962;2023-06-10T02:40:06;101186.18;;;18.08;55.26
77019;BME280;66044;53.142;17.962;2023-06-10T02:42:32;101190.69;;;18.08;55.26
77019;BME280;66044;53.142;17.962;2023-06-10T02:44:59;101197.59;;;18.07;55.27
77019;BME280;66044;53.142;17.962;2023-06-10T02:47:27;101201.98;;;18.06;55.36
77019;BME280;66044;53.142;17.962;2023-06-10T02:49:53;101209.98;;;18.06;55.36
77019;BME280;66044;53.142;17.962;2023-06-10T02:52:20;101210.73;;;18.03;55.38
77019;BME280;66044;53.142;17.962;2023-06-10T02:54:46;101207.65;;;18.01;55.41
77019;BME280;66044;53.142;17.962;2023-06-10T02:57:13;101213.06;;;18.00;55.57
77019;BME280;66044;53.142;17.962;2023-06-10T02:59:40;101217.21;;;17.97;55.64
77019;BME280;66044;53.142;17.962;2023-06-10T03:02:07;101228.23;;;17.95;55.59
77019;BME280;66044;53.142;17.962;2023-06-10T03:04:33;101235.27;;;17.94;55.70
77019;BME280;66044;53.142;17.962;2023-06-10T03:07:00;101236.94;;;17.92;55.64
77019;BME280;66044;53.142;17.962;2023-06-10T03:09:29;101245.35;;;17.90;55.50
77019;BME280;66044;53.142;17.962;2023-06-10T03:11:56;101248.73;;;17.88;55.88
77019;BME280;66044;53.142;17.962;2023-06-10T03:14:22;101250.38;;;17.84;56.00
77019;BME280;66044;53.142;17.962;2023-06-10T03:16:51;101254.71;;;17.79;56.09
77019;BME280;66044;53.142;17.962;2023-06-10T03:19:17;101265.43;;;17.76;56.15
77019;BME280;66044;53.142;17.962;2023-06-10T03:21:44;101259.70;;;17.72;56.22
77019;BME280;66044;53.142;17.962;2023-06-10T03:24:11;101260.80;;;17.69;56.33
77019;BME280;66044;53.142;17.962;2023-06-10T03:26:38;101259.62;;;17.68;56.30
77019;BME280;66044;53.142;17.962;2023-06-10T03:29:04;101263.69;;;17.70;56.31
77019;BME280;66044;53.142;17.962;2023-06-10T03:31:31;101270.59;;;17.73;56.41
77019;BME280;66044;53.142;17.962;2023-06-10T03:33:58;101272.91;;;17.76;56.17
77019;BME280;66044;53.142;17.962;2023-06-10T03:36:25;101276.08;;;17.84;56.12
77019;BME280;66044;53.142;17.962;2023-06-10T03:38:55;101282.31;;;17.93;55.88
77019;BME280;66044;53.142;17.962;2023-06-10T03:41:23;101287.39;;;18.04;55.57
77019;BME280;66044;53.142;17.962;2023-06-10T03:43:49;101287.95;;;18.12;55.45
77019;BME280;66044;53.142;17.962;2023-06-10T03:46:16;101290.30;;;18.18;55.26
77019;BME280;66044;53.142;17.962;2023-06-10T03:48:44;101287.42;;;18.23;55.06
77019;BME280;66044;53.142;17.962;2023-06-10T03:51:10;101287.59;;;18.51;54.53
77019;BME280;66044;53.142;17.962;2023-06-10T03:53:36;101293.08;;;18.81;53.81
77019;BME280;66044;53.142;17.962;2023-06-10T03:56:04;101299.91;;;18.85;53.28
77019;BME280;66044;53.142;17.962;2023-06-10T03:58:30;101303.44;;;18.82;53.14
77019;BME280;66044;53.142;17.962;2023-06-10T04:00:57;101304.79;;;18.84;53.00
77019;BME280;66044;53.142;17.962;2023-06-10T04:03:26;101313.30;;;18.85;52.86
77019;BME280;66044;53.142;17.962;2023-06-10T04:05:53;101315.35;;;18.83;52.56
77019;BME280;66044;53.142;17.962;2023-06-10T04:08:20;101314.16;;;18.77;52.35
77019;BME280;66044;53.142;17.962;2023-06-10T04:10:46;101317.66;;;18.71;52.23
77019;BME280;66044;53.142;17.962;2023-06-10T04:13:13;101320.67;;;18.66;52.06
77019;BME280;66044;53.142;17.962;2023-06-10T04:15:40;101322.17;;;18.62;51.79
77019;BME280;66044;53.142;17.962;2023-06-10T04:18:07;101325.08;;;18.64;51.73
77019;BME280;66044;53.142;17.962;2023-06-10T04:20:33;101327.34;;;18.69;51.63
77019;BME280;66044;53.142;17.962;2023-06-10T04:23:00;101325.73;;;18.70;51.38
77019;BME280;66044;53.142;17.962;2023-06-10T04:25:27;101327.03;;;18.69;51.16
77019;BME280;66044;53.142;17.962;2023-06-10T04:27:54;101328.48;;;18.68;50.88
77019;BME280;66044;53.142;17.962;2023-06-10T04:30:21;101327.14;;;18.66;50.73
77019;BME280;66044;53.142;17.962;2023-06-10T04:32:47;101331.23;;;18.69;50.64
77019;BME280;66044;53.142;17.962;2023-06-10T04:35:15;101331.52;;;18.72;50.43
77019;BME280;66044;53.142;17.962;2023-06-10T04:37:41;101333.06;;;18.73;50.22
77019;BME280;66044;53.142;17.962;2023-06-10T04:40:09;101337.48;;;18.76;50.04
77019;BME280;66044;53.142;17.962;2023-06-10T04:42:36;101336.39;;;18.76;49.74
77019;BME280;66044;53.142;17.962;2023-06-10T04:45:04;101338.39;;;18.75;49.50
77019;BME280;66044;53.142;17.962;2023-06-10T04:47:30;101338.39;;;18.75;49.25
77019;BME280;66044;53.142;17.962;2023-06-10T04:50:00;101338.66;;;18.72;48.96
77019;BME280;66044;53.142;17.962;2023-06-10T04:52:27;101337.20;;;18.73;48.97
77019;BME280;66044;53.142;17.962;2023-06-10T04:54:53;101340.86;;;18.74;48.83
77019;BME280;66044;53.142;17.962;2023-06-10T04:57:21;101338.29;;;18.77;48.72
77019;BME280;66044;53.142;17.962;2023-06-10T04:59:47;101341.06;;;18.81;48.36
77019;BME280;66044;53.142;17.962;2023-06-10T05:02:14;101338.55;;;18.84;48.02
77019;BME280;66044;53.142;17.962;2023-06-10T05:04:40;101347.39;;;18.88;47.86
77019;BME280;66044;53.142;17.962;2023-06-10T05:07:07;101349.27;;;18.89;47.64
77019;BME280;66044;53.142;17.962;2023-06-10T05:09:33;101350.45;;;18.89;47.44
77019;BME280;66044;53.142;17.962;2023-06-10T05:12:00;101353.15;;;18.88;47.50
77019;BME280;66044;53.142;17.962;2023-06-10T05:14:26;101355.08;;;18.86;47.50
77019;BME280;66044;53.142;17.962;2023-06-10T05:16:53;101356.07;;;18.85;47.46
77019;BME280;66044;53.142;17.962;2023-06-10T05:19:20;101353.89;;;18.85;47.44
77019;BME280;66044;53.142;17.962;2023-06-10T05:21:47;101359.11;;;18.85;47.53
77019;BME280;66044;53.142;17.962;2023-06-10T05:24:14;101359.88;;;18.85;47.54
77019;BME280;66044;53.142;17.962;2023-06-10T05:26:40;101359.49;;;18.85;47.36
77019;BME280;66044;53.142;17.962;2023-06-10T05:29:08;101359.18;;;18.85;47.37
77019;BME280;66044;53.142;17.962;2023-06-10T05:31:35;101357.83;;;18.84;47.40
77019;BME280;66044;53.142;17.962;2023-06-10T05:34:02;101357.91;;;18.83;47.40
77019;BME280;66044;53.142;17.962;2023-06-10T05:36:28;101359.75;;;18.82;47.28
77019;BME280;66044;53.142;17.962;2023-06-10T05:38:55;101361.04;;;18.81;47.26
77019;BME280;66044;53.142;17.962;2023-06-10T05:41:21;101360.71;;;18.80;47.26
77019;BME280;66044;53.142;17.962;2023-06-10T05:43:48;101358.39;;;18.80;47.27
77019;BME280;66044;53.142;17.962;2023-06-10T05:46:15;101355.14;;;18.81;47.37
77019;BME280;66044;53.142;17.962;2023-06-10T05:48:41;101354.84;;;18.82;47.46
77019;BME280;66044;53.142;17.962;2023-06-10T05:51:08;101353.66;;;18.81;47.49
77019;BME280;66044;53.142;17.962;2023-06-10T05:53:34;101353.77;;;18.82;47.62
77019;BME280;66044;53.142;17.962;2023-06-10T05:56:01;101354.04;;;18.84;47.73
77019;BME280;66044;53.142;17.962;2023-06-10T05:58:27;101351.19;;;18.87;47.85
77019;BME280;66044;53.142;17.962;2023-06-10T06:00:54;101358.14;;;18.89;47.89
77019;BME280;66044;53.142;17.962;2023-06-10T06:03:20;101357.54;;;18.90;48.15
77019;BME280;66044;53.142;17.962;2023-06-10T06:05:47;101359.95;;;18.90;48.37
77019;BME280;66044;53.142;17.962;2023-06-10T06:08:13;101360.90;;;18.90;48.68
77019;BME280;66044;53.142;17.962;2023-06-10T06:10:44;101357.98;;;18.88;48.95
77019;BME280;66044;53.142;17.962;2023-06-10T06:13:11;101359.61;;;18.79;49.55
77019;BME280;66044;53.142;17.962;2023-06-10T06:15:37;101359.11;;;18.67;50.46
77019;BME280;66044;53.142;17.962;2023-06-10T06:18:04;101364.01;;;18.55;51.25
77019;BME280;66044;53.142;17.962;2023-06-10T06:20:31;101361.48;;;18.48;51.61
77019;BME280;66044;53.142;17.962;2023-06-10T06:22:57;101368.64;;;18.49;51.86
77019;BME280;66044;53.142;17.962;2023-06-10T06:25:24;101369.48;;;18.56;52.09
77019;BME280;66044;53.142;17.962;2023-06-10T06:27:50;101373.26;;;18.66;52.14
77019;BME280;66044;53.142;17.962;2023-06-10T06:30:16;101373.30;;;18.83;52.07
77019;BME280;66044;53.142;17.962;2023-06-10T06:32:43;101377.73;;;19.03;51.79
77019;BME280;66044;53.142;17.962;2023-06-10T06:35:09;101379.46;;;19.30;51.59
77019;BME280;66044;53.142;17.962;2023-06-10T06:37:36;101372.53;;;19.73;50.94
77019;BME280;66044;53.142;17.962;2023-06-10T06:40:03;101375.55;;;20.23;50.34
77019;BME280;66044;53.142;17.962;2023-06-10T06:42:30;101380.63;;;20.90;49.15
77019;BME280;66044;53.142;17.962;2023-06-10T06:44:57;101387.15;;;21.83;47.78
77019;BME280;66044;53.142;17.962;2023-06-10T06:47:23;101390.98;;;23.09;46.13
77019;BME280;66044;53.142;17.962;2023-06-10T06:49:51;101389.63;;;24.39;44.36
77019;BME280;66044;53.142;17.962;2023-06-10T06:52:17;101391.95;;;25.39;42.60
77019;BME280;66044;53.142;17.962;2023-06-10T06:54:45;101396.00;;;26.54;41.07
77019;BME280;66044;53.142;17.962;2023-06-10T06:57:11;101400.85;;;26.82;39.92
77019;BME280;66044;53.142;17.962;2023-06-10T06:59:38;101403.17;;;27.20;38.91
77019;BME280;66044;53.142;17.962;2023-06-10T07:02:04;101403.60;;;28.13;37.27
77019;BME280;66044;53.142;17.962;2023-06-10T07:04:31;101411.40;;;30.35;35.00
77019;BME280;66044;53.142;17.962;2023-06-10T07:06:58;101414.65;;;31.93;31.52
77019;BME280;66044;53.142;17.962;2023-06-10T07:09:24;101412.77;;;33.01;29.72
77019;BME280;66044;53.142;17.962;2023-06-10T07:11:51;101416.81;;;33.64;28.59
77019;BME280;66044;53.142;17.962;2023-06-10T07:14:17;101422.33;;;35.11;27.44
77019;BME280;66044;53.142;17.962;2023-06-10T07:16:44;101424.80;;;37.12;25.74
77019;BME280;66044;53.142;17.962;2023-06-10T07:19:12;101426.41;;;38.78;23.74
77019;BME280;66044;53.142;17.962;2023-06-10T07:21:38;101431.48;;;39.69;22.13
77019;BME280;66044;53.142;17.962;2023-06-10T07:24:06;101431.02;;;40.26;20.98
77019;BME280;66044;53.142;17.962;2023-06-10T07:26:32;101440.27;;;40.82;19.51
77019;BME280;66044;53.142;17.962;2023-06-10T07:28:59;101439.64;;;40.86;18.71
77019;BME280;66044;53.142;17.962;2023-06-10T07:31:25;101441.95;;;40.69;18.65
77019;BME280;66044;53.142;17.962;2023-06-10T07:33:52;101433.54;;;40.09;18.88
77019;BME280;66044;53.142;17.962;2023-06-10T07:36:18;101424.36;;;38.90;19.23
77019;BME280;66044;53.142;17.962;2023-06-10T07:38:45;101430.39;;;37.70;20.07
77019;BME280;66044;53.142;17.962;2023-06-10T07:41:11;101425.61;;;35.94;21.01
77019;BME280;66044;53.142;17.962;2023-06-10T07:43:38;101425.96;;;34.73;22.37
77019;BME280;66044;53.142;17.962;2023-06-10T07:46:05;101424.14;;;33.61;23.41
77019;BME280;66044;53.142;17.962;2023-06-10T07:48:31;101419.31;;;32.59;24.28
77019;BME280;66044;53.142;17.962;2023-06-10T07:51:01;101419.70;;;31.68;25.26
77019;BME280;66044;53.142;17.962;2023-06-10T07:53:27;101414.86;;;30.79;26.19
77019;BME280;66044;53.142;17.962;2023-06-10T07:55:54;101416.34;;;30.09;27.05
77019;BME280;66044;53.142;17.962;2023-06-10T07:58:20;101415.24;;;29.56;27.66
77019;BME280;66044;53.142;17.962;2023-06-10T08:00:48;101415.45;;;28.98;28.46
77019;BME280;66044;53.142;17.962;2023-06-10T08:03:14;101417.55;;;28.35;29.52
77019;BME280;66044;53.142;17.962;2023-06-10T08:05:41;101419.13;;;27.79;30.29
77019;BME280;66044;53.142;17.962;2023-06-10T08:08:07;101423.88;;;27.32;30.77
77019;BME280;66044;53.142;17.962;2023-06-10T08:10:34;101418.67;;;27.01;31.46
77019;BME280;66044;53.142;17.962;2023-06-10T08:13:00;101418.44;;;26.80;31.80
77019;BME280;66044;53.142;17.962;2023-06-10T08:15:27;101418.65;;;26.57;32.18
77019;BME280;66044;53.142;17.962;2023-06-10T08:17:53;101417.75;;;26.48;32.50
77019;BME280;66044;53.142;17.962;2023-06-10T08:20:19;101421.90;;;26.55;32.61
77019;BME280;66044;53.142;17.962;2023-06-10T08:22:46;101420.32;;;26.56;32.68
77019;BME280;66044;53.142;17.962;2023-06-10T08:25:12;101423.31;;;26.55;32.74
77019;BME280;66044;53.142;17.962;2023-06-10T08:27:39;101420.09;;;26.55;32.86
77019;BME280;66044;53.142;17.962;2023-06-10T08:30:06;101422.86;;;26.54;32.32
77019;BME280;66044;53.142;17.962;2023-06-10T08:32:33;101424.84;;;26.44;32.47
77019;BME280;66044;53.142;17.962;2023-06-10T08:34:59;101426.79;;;26.27;32.22
77019;BME280;66044;53.142;17.962;2023-06-10T08:37:26;101422.25;;;26.12;32.47
77019;BME280;66044;53.142;17.962;2023-06-10T08:39:52;101431.67;;;26.07;32.29
77019;BME280;66044;53.142;17.962;2023-06-10T08:42:24;101431.73;;;25.85;32.22
77019;BME280;66044;53.142;17.962;2023-06-10T08:44:55;101427.22;;;25.72;32.79
77019;BME280;66044;53.142;17.962;2023-06-10T08:47:23;101426.86;;;25.76;33.07
77019;BME280;66044;53.142;17.962;2023-06-10T08:49:51;101431.94;;;25.87;33.11
77019;BME280;66044;53.142;17.962;2023-06-10T08:52:20;101431.97;;;25.91;33.05
77019;BME280;66044;53.142;17.962;2023-06-10T08:54:59;101431.73;;;25.91;32.91
77019;BME280;66044;53.142;17.962;2023-06-10T08:57:26;101430.65;;;25.89;32.69
77019;BME280;66044;53.142;17.962;2023-06-10T08:59:53;101434.60;;;25.81;32.71
77019;BME280;66044;53.142;17.962;2023-06-10T09:02:27;101430.88;;;25.70;32.87
77019;BME280;66044;53.142;17.962;2023-06-10T09:04:56;101431.55;;;25.60;33.08
77019;BME280;66044;53.142;17.962;2023-06-10T09:07:23;101433.41;;;25.52;33.11
77019;BME280;66044;53.142;17.962;2023-06-10T09:09:49;101436.77;;;25.47;32.86
77019;BME280;66044;53.142;17.962;2023-06-10T09:12:16;101438.06;;;25.42;32.70
77019;BME280;66044;53.142;17.962;2023-06-10T09:14:43;101430.92;;;25.34;33.00
77019;BME280;66044;53.142;17.962;2023-06-10T09:17:10;101434.73;;;25.30;33.05
77019;BME280;66044;53.142;17.962;2023-06-10T09:19:38;101436.60;;;25.23;33.08
77019;BME280;66044;53.142;17.962;2023-06-10T09:22:06;101437.23;;;25.13;31.93
77019;BME280;66044;53.142;17.962;2023-06-10T09:24:32;101431.45;;;25.00;32.33
77019;BME280;66044;53.142;17.962;2023-06-10T09:27:07;101436.64;;;24.87;32.19
77019;BME280;66044;53.142;17.962;2023-06-10T09:29:47;101441.38;;;24.82;32.23
77019;BME280;66044;53.142;17.962;2023-06-10T09:32:18;101440.61;;;24.80;32.15
77019;BME280;66044;53.142;17.962;2023-06-10T09:34:45;101435.17;;;24.73;32.46
77019;BME280;66044;53.142;17.962;2023-06-10T09:37:12;101434.25;;;24.71;32.01
77019;BME280;66044;53.142;17.962;2023-06-10T09:39:40;101432.14;;;24.68;32.38
77019;BME280;66044;53.142;17.962;2023-06-10T09:42:17;101428.15;;;24.67;32.88
77019;BME280;66044;53.142;17.962;2023-06-10T09:44:51;101432.09;;;24.76;32.87
77019;BME280;66044;53.142;17.962;2023-06-10T09:47:22;101421.69;;;24.82;33.27
77019;BME280;66044;53.142;17.962;2023-06-10T09:49:49;101428.01;;;24.88;32.77
77019;BME280;66044;53.142;17.962;2023-06-10T09:52:25;101427.77;;;24.85;31.87
77019;BME280;66044;53.142;17.962;2023-06-10T09:54:53;101433.13;;;24.84;31.98
77019;BME280;66044;53.142;17.962;2023-06-10T09:57:21;101432.91;;;24.82;31.88
77019;BME280;66044;53.142;17.962;2023-06-10T09:59:48;101433.37;;;24.74;31.98
77019;BME280;66044;53.142;17.962;2023-06-10T10:02:18;101429.58;;;24.64;31.45
77019;BME280;66044;53.142;17.962;2023-06-10T10:04:45;101430.16;;;24.59;29.89
77019;BME280;66044;53.142;17.962;2023-06-10T10:07:12;101433.09;;;24.66;30.62
77019;BME280;66044;53.142;17.962;2023-06-10T10:09:40;101431.82;;;24.70;31.47
77019;BME280;66044;53.142;17.962;2023-06-10T10:12:10;101423.59;;;24.79;31.11
77019;BME280;66044;53.142;17.962;2023-06-10T10:14:38;101442.08;;;24.85;30.35
77019;BME280;66044;53.142;17.962;2023-06-10T10:17:09;101439.81;;;24.82;30.46
77019;BME280;66044;53.142;17.962;2023-06-10T10:19:48;101430.77;;;24.74;30.98
77019;BME280;66044;53.142;17.962;2023-06-10T10:22:30;101430.29;;;24.76;31.28
77019;BME280;66044;53.142;17.962;2023-06-10T10:25:00;101427.58;;;24.82;31.71
77019;BME280;66044;53.142;17.962;2023-06-10T10:27:33;101434.66;;;24.91;31.44
77019;BME280;66044;53.142;17.962;2023-06-10T10:30:03;101436.85;;;24.95;31.04
77019;BME280;66044;53.142;17.962;2023-06-10T10:32:50;101432.09;;;24.86;31.71
77019;BME280;66044;53.142;17.962;2023-06-10T10:35:21;101433.64;;;24.78;31.93
77019;BME280;66044;53.142;17.962;2023-06-10T10:37:53;101435.11;;;24.71;31.75
77019;BME280;66044;53.142;17.962;2023-06-10T10:40:21;101431.72;;;24.62;31.72
77019;BME280;66044;53.142;17.962;2023-06-10T10:42:50;101428.48;;;24.55;31.01
77019;BME280;66044;53.142;17.962;2023-06-10T10:45:17;101428.31;;;24.56;31.33
77019;BME280;66044;53.142;17.962;2023-06-10T10:47:52;101433.96;;;24.56;30.77
77019;BME280;66044;53.142;17.962;2023-06-10T10:50:20;101431.23;;;24.50;30.46
77019;BME280;66044;53.142;17.962;2023-06-10T10:55:23;101432.15;;;24.43;30.38
77019;BME280;66044;53.142;17.962;2023-06-10T10:58:06;101422.36;;;24.38;29.82
77019;BME280;66044;53.142;17.962;2023-06-10T11:00:37;101429.30;;;24.33;29.34
77019;BME280;66044;53.142;17.962;2023-06-10T11:03:08;101436.23;;;24.29;29.43
77019;BME280;66044;53.142;17.962;2023-06-10T11:05:41;101436.10;;;24.24;29.01
77019;BME280;66044;53.142;17.962;2023-06-10T11:08:11;101427.48;;;24.16;28.96
77019;BME280;66044;53.142;17.962;2023-06-10T11:10:39;101423.95;;;24.19;29.55
77019;BME280;66044;53.142;17.962;2023-06-10T11:13:13;101423.47;;;24.24;29.93
77019;BME280;66044;53.142;17.962;2023-06-10T11:15:47;101417.64;;;24.28;29.73
77019;BME280;66044;53.142;17.962;2023-06-10T11:18:26;101415.27;;;24.31;29.28
77019;BME280;66044;53.142;17.962;2023-06-10T11:21:04;101431.81;;;24.33;28.80
77019;BME280;66044;53.142;17.962;2023-06-10T11:23:38;101428.16;;;24.26;27.88
77019;BME280;66044;53.142;17.962;2023-06-10T11:26:29;101426.23;;;24.20;27.69
77019;BME280;66044;53.142;17.962;2023-06-10T11:33:57;101418.60;;;24.25;28.45
77019;BME280;66044;53.142;17.962;2023-06-10T11:36:24;101422.20;;;24.27;27.61
77019;BME280;66044;53.142;17.962;2023-06-10T11:38:56;101409.70;;;24.30;27.73
77019;BME280;66044;53.142;17.962;2023-06-10T11:41:27;101402.61;;;24.36;27.64
77019;BME280;66044;53.142;17.962;2023-06-10T11:43:55;101410.91;;;24.42;27.59
77019;BME280;66044;53.142;17.962;2023-06-10T11:46:23;101410.86;;;24.44;27.59
77019;BME280;66044;53.142;17.962;2023-06-10T11:48:52;101412.21;;;24.43;27.39
77019;BME280;66044;53.142;17.962;2023-06-10T11:51:19;101404.80;;;24.38;27.40
77019;BME280;66044;53.142;17.962;2023-06-10T11:53:50;101398.98;;;24.41;27.60
77019;BME280;66044;53.142;17.962;2023-06-10T11:56:21;101399.88;;;24.46;27.65
77019;BME280;66044;53.142;17.962;2023-06-10T11:58:53;101405.48;;;24.53;27.37
77019;BME280;66044;53.142;17.962;2023-06-10T12:01:22;101406.49;;;24.52;27.31
77019;BME280;66044;53.142;17.962;2023-06-10T12:04:01;101401.79;;;24.52;27.38
77019;BME280;66044;53.142;17.962;2023-06-10T12:06:47;101397.63;;;24.53;27.58
77019;BME280;66044;53.142;17.962;2023-06-10T12:09:18;101397.55;;;24.62;27.56
77019;BME280;66044;53.142;17.962;2023-06-10T12:11:49;101398.52;;;24.72;27.35
77019;BME280;66044;53.142;17.962;2023-06-10T12:22:37;101402.02;;;24.98;26.64
77019;BME280;66044;53.142;17.962;2023-06-10T12:25:05;101398.23;;;24.97;26.55
77019;BME280;66044;53.142;17.962;2023-06-10T12:27:33;101393.21;;;24.98;26.68
77019;BME280;66044;53.142;17.962;2023-06-10T12:30:02;101395.02;;;25.00;26.69
77019;BME280;66044;53.142;17.962;2023-06-10T12:32:41;101391.08;;;25.01;26.67
77019;BME280;66044;53.142;17.962;2023-06-10T12:35:10;101386.58;;;25.02;26.62
77019;BME280;66044;53.142;17.962;2023-06-10T12:37:39;101389.14;;;25.04;26.44
77019;BME280;66044;53.142;17.962;2023-06-10T12:40:06;101401.73;;;25.02;25.86
77019;BME280;66044;53.142;17.962;2023-06-10T12:42:35;101393.69;;;24.97;26.07
77019;BME280;66044;53.142;17.962;2023-06-10T12:45:04;101392.50;;;24.99;26.19
77019;BME280;66044;53.142;17.962;2023-06-10T12:47:34;101396.73;;;25.00;25.79
77019;BME280;66044;53.142;17.962;2023-06-10T12:50:02;101384.39;;;25.01;25.99
77019;BME280;66044;53.142;17.962;2023-06-10T12:52:29;101389.98;;;25.06;25.63
77019;BME280;66044;53.142;17.962;2023-06-10T12:54:56;101386.70;;;25.07;25.20
77019;BME280;66044;53.142;17.962;2023-06-10T12:57:22;101389.58;;;25.09;24.53
77019;BME280;66044;53.142;17.962;2023-06-10T12:59:49;101382.73;;;25.11;23.75
77019;BME280;66044;53.142;17.962;2023-06-10T13:02:20;101394.27;;;25.12;23.05
77019;BME280;66044;53.142;17.962;2023-06-10T13:04:47;101388.79;;;25.10;22.76
77019;BME280;66044;53.142;17.962;2023-06-10T13:07:15;101385.17;;;25.10;23.03
77019;BME280;66044;53.142;17.962;2023-06-10T13:09:42;101380.95;;;25.07;23.04